Terminal Aerodrome Forecast
Issued by NWS North Platte, NE

Home | Current Version | Previous Version | Text Only | Print | Product List | Glossary On
Versions: 1 2 3 4 5 6 7 8 9 10 11 12 13 14 15 16 17 18 19 20
000
FTUS43 KLBF 251800 AAA
TAFVTN
TAF AMD
KVTN 251859Z 2519/2618 34016G26KT P6SM BKN040
     FM252200 33014G24KT P6SM SCT035
     FM260100 33010KT P6SM SCT250
     FM260400 VRB03KT P6SM BKN100
     FM261600 30012G22KT P6SM BKN035=

USA.gov is the U.S. government's official web portal to all federal, state and local government web resources and services.